createdAt,value
2022-10-20T00:00:06.938Z,100
2022-10-20T00:01:06.953Z,94
2022-10-20T00:02:06.933Z,95
2022-10-20T00:03:07.059Z,94
2022-10-20T00:04:06.932Z,93
2022-10-20T00:05:06.927Z,99
2022-10-20T00:06:06.928Z,93
2022-10-20T00:07:06.927Z,96
2022-10-20T00:08:06.966Z,95
2022-10-20T00:09:07.007Z,90
2022-10-20T00:10:06.934Z,88
2022-10-20T00:11:06.921Z,100
2022-10-20T00:12:06.917Z,95
2022-10-20T00:13:06.932Z,96
2022-10-20T00:14:06.932Z,90
2022-10-20T00:15:06.919Z,89
2022-10-20T00:16:06.929Z,114
2022-10-20T00:17:06.940Z,97
2022-10-20T00:18:06.916Z,92
2022-10-20T00:19:07.488Z,93
2022-10-20T00:20:06.983Z,90
2022-10-20T00:21:06.913Z,92
2022-10-20T00:22:07.026Z,94
2022-10-20T00:23:06.924Z,91
2022-10-20T00:24:06.921Z,91
2022-10-20T00:25:06.907Z,92
2022-10-20T00:26:06.922Z,94
2022-10-20T00:27:06.911Z,92
2022-10-20T00:28:06.904Z,91
2022-10-20T00:29:06.964Z,92
2022-10-20T00:30:06.906Z,102
2022-10-20T00:31:06.919Z,95
2022-10-20T00:32:06.897Z,91
2022-10-20T00:33:06.905Z,90
2022-10-20T00:34:06.896Z,90
2022-10-20T00:35:06.918Z,89
2022-10-20T00:36:06.908Z,90
2022-10-20T00:37:06.891Z,93
2022-10-20T00:38:06.901Z,95
2022-10-20T00:39:06.897Z,89
2022-10-20T00:40:06.891Z,90
2022-10-20T00:41:06.907Z,98
2022-10-20T00:42:06.886Z,87
2022-10-20T00:43:06.882Z,95
2022-10-20T00:44:06.902Z,97
2022-10-20T00:45:06.899Z,97
2022-10-20T00:46:06.885Z,88
2022-10-20T00:47:06.886Z,90
2022-10-20T00:48:06.892Z,86
2022-10-20T00:49:06.891Z,88
2022-10-20T00:50:06.882Z,88
2022-10-20T00:51:06.921Z,87
2022-10-20T00:52:06.892Z,88
2022-10-20T00:53:06.883Z,95
2022-10-20T00:54:06.872Z,94
2022-10-20T00:55:06.876Z,107
2022-10-20T00:56:06.893Z,93
2022-10-20T00:57:06.894Z,87
2022-10-20T00:58:06.879Z,104
2022-10-20T00:59:06.877Z,99
2022-10-20T01:00:06.880Z,87
2022-10-20T01:01:06.867Z,104
2022-10-20T01:02:07.012Z,94
2022-10-20T01:03:06.895Z,92
2022-10-20T01:04:06.858Z,83
2022-10-20T01:05:06.856Z,88
2022-10-20T01:06:06.905Z,88
2022-10-20T01:07:06.903Z,90
2022-10-20T01:08:06.861Z,84
2022-10-20T01:09:06.975Z,91
2022-10-20T01:10:06.859Z,95
2022-10-20T01:11:06.850Z,92
2022-10-20T01:12:06.848Z,84
2022-10-20T01:13:06.852Z,87
2022-10-20T01:14:06.862Z,90
2022-10-20T01:15:06.884Z,92
2022-10-20T01:16:06.865Z,97
2022-10-20T01:17:06.844Z,91
2022-10-20T01:18:06.854Z,87
2022-10-20T01:19:06.847Z,85
2022-10-20T01:20:06.862Z,92
2022-10-20T01:21:06.844Z,89
2022-10-20T01:22:06.838Z,82
2022-10-20T01:23:07.108Z,79
2022-10-20T01:24:06.845Z,83
2022-10-20T01:25:06.849Z,81
2022-10-20T01:26:06.834Z,81
2022-10-20T01:27:06.872Z,86
2022-10-20T01:28:06.844Z,91
2022-10-20T01:29:06.829Z,89
2022-10-20T01:30:06.835Z,96
2022-10-20T01:31:06.833Z,97
2022-10-20T01:32:06.861Z,84
2022-10-20T01:33:06.832Z,83
2022-10-20T01:34:06.846Z,83
2022-10-20T01:35:06.824Z,94
2022-10-20T01:36:06.839Z,86
2022-10-20T01:37:06.840Z,92
2022-10-20T01:38:06.846Z,95
2022-10-20T01:39:06.844Z,86
2022-10-20T01:40:06.823Z,90
2022-10-20T01:41:06.820Z,94
2022-10-20T01:42:06.838Z,89
2022-10-20T01:43:06.817Z,87
2022-10-20T01:44:06.839Z,84
2022-10-20T01:45:06.823Z,87
2022-10-20T01:46:06.817Z,98
2022-10-20T01:47:06.817Z,94
2022-10-20T01:48:06.811Z,91
2022-10-20T01:49:06.842Z,100
2022-10-20T01:50:06.812Z,96
2022-10-20T01:51:06.809Z,91
2022-10-20T01:52:06.843Z,93
2022-10-20T01:53:06.807Z,94
2022-10-20T01:54:06.807Z,99
2022-10-20T01:55:06.881Z,93
2022-10-20T01:56:06.799Z,91
2022-10-20T01:57:06.815Z,84
2022-10-20T01:58:06.809Z,86
2022-10-20T01:59:06.798Z,85
2022-10-20T02:00:06.792Z,89
2022-10-20T02:01:06.792Z,89
2022-10-20T02:02:06.813Z,93
2022-10-20T02:03:06.788Z,93
2022-10-20T02:04:06.788Z,87
2022-10-20T02:05:06.791Z,99
2022-10-20T02:06:06.805Z,105
2022-10-20T02:07:06.798Z,90
2022-10-20T02:08:06.784Z,88
2022-10-20T02:09:06.794Z,89
2022-10-20T02:10:06.785Z,87
2022-10-20T02:11:06.823Z,96
2022-10-20T02:12:06.806Z,96
2022-10-20T02:13:06.786Z,97
2022-10-20T02:14:06.787Z,89
2022-10-20T02:15:06.785Z,86
2022-10-20T02:16:06.813Z,90
2022-10-20T02:17:06.783Z,89
2022-10-20T02:18:06.780Z,91
2022-10-20T02:19:06.783Z,85
2022-10-20T02:20:06.786Z,88
2022-10-20T02:21:06.795Z,82
2022-10-20T02:22:06.788Z,92
2022-10-20T02:23:06.801Z,96
2022-10-20T02:24:06.778Z,95
2022-10-20T02:25:06.783Z,91
2022-10-20T02:26:06.771Z,82
2022-10-20T02:27:06.791Z,90
2022-10-20T02:28:06.772Z,96
2022-10-20T02:29:06.773Z,92
2022-10-20T02:30:06.778Z,85
2022-10-20T02:31:06.763Z,83
2022-10-20T02:32:06.777Z,82
2022-10-20T02:33:06.755Z,89
2022-10-20T02:34:06.763Z,82
2022-10-20T02:35:07.044Z,86
2022-10-20T02:36:06.755Z,79
2022-10-20T02:37:06.809Z,82
2022-10-20T02:38:06.758Z,90
2022-10-20T02:39:06.749Z,85
2022-10-20T02:40:06.766Z,78
2022-10-20T02:41:06.751Z,84
2022-10-20T02:42:06.752Z,88
2022-10-20T02:43:06.784Z,85
2022-10-20T02:44:06.744Z,85
2022-10-20T02:45:06.769Z,87
2022-10-20T02:46:06.831Z,86
2022-10-20T02:47:06.761Z,80
2022-10-20T02:48:07.938Z,83
2022-10-20T02:49:06.737Z,78
2022-10-20T02:50:06.741Z,84
2022-10-20T02:51:06.749Z,99
2022-10-20T02:52:06.738Z,89
2022-10-20T02:53:06.734Z,84
2022-10-20T02:54:06.745Z,92
2022-10-20T02:55:06.792Z,90
2022-10-20T02:56:06.745Z,81
2022-10-20T02:57:06.731Z,88
2022-10-20T02:58:06.724Z,89
2022-10-20T02:59:06.774Z,94
2022-10-20T03:00:06.751Z,84
2022-10-20T03:01:06.725Z,79
2022-10-20T03:02:06.841Z,94
2022-10-20T03:03:06.739Z,84
2022-10-20T03:04:06.761Z,88
2022-10-20T03:05:06.722Z,84
2022-10-20T03:06:06.715Z,86
2022-10-20T03:07:06.718Z,87
2022-10-20T03:08:06.729Z,84
2022-10-20T03:09:06.728Z,86
2022-10-20T03:10:06.725Z,77
2022-10-20T03:11:06.720Z,80
2022-10-20T03:12:06.716Z,76
2022-10-20T03:13:06.723Z,76
2022-10-20T03:14:06.721Z,74
2022-10-20T03:15:06.746Z,80
2022-10-20T03:16:06.710Z,92
2022-10-20T03:17:06.719Z,80
2022-10-20T03:18:06.711Z,79
2022-10-20T03:19:09.097Z,74
2022-10-20T03:20:06.708Z,78
2022-10-20T03:21:06.710Z,79
2022-10-20T03:22:06.719Z,78
2022-10-20T03:23:06.731Z,84
2022-10-20T03:24:06.707Z,81
2022-10-20T03:25:06.711Z,87
2022-10-20T03:26:06.694Z,86
2022-10-20T03:27:06.696Z,76
2022-10-20T03:28:06.706Z,78
2022-10-20T03:29:06.695Z,81
2022-10-20T03:30:06.693Z,90
2022-10-20T03:31:06.712Z,84
2022-10-20T03:32:06.693Z,85
2022-10-20T03:33:06.702Z,98
2022-10-20T03:34:06.717Z,94
2022-10-20T03:35:06.692Z,80
2022-10-20T03:36:06.687Z,84
2022-10-20T03:37:06.681Z,81
2022-10-20T03:38:06.697Z,79
2022-10-20T03:39:06.683Z,85
2022-10-20T03:40:06.687Z,90
2022-10-20T03:41:06.684Z,91
2022-10-20T03:42:06.692Z,92
2022-10-20T03:43:06.695Z,91
2022-10-20T03:44:06.684Z,91
2022-10-20T03:45:06.675Z,86
2022-10-20T03:46:06.681Z,86
2022-10-20T03:47:06.713Z,97
2022-10-20T03:48:06.677Z,87
2022-10-20T03:49:06.682Z,91
2022-10-20T03:50:06.683Z,81
2022-10-20T03:51:06.677Z,75
2022-10-20T03:52:06.679Z,85
2022-10-20T03:53:06.668Z,77
2022-10-20T03:54:06.676Z,84
2022-10-20T03:55:06.660Z,84
2022-10-20T03:56:06.674Z,77
2022-10-20T03:57:07.863Z,79
2022-10-20T03:58:06.664Z,76
2022-10-20T03:59:06.676Z,81
2022-10-20T04:00:06.659Z,77
2022-10-20T04:01:06.677Z,85
2022-10-20T04:02:06.749Z,78
2022-10-20T04:03:06.685Z,78
2022-10-20T04:04:06.658Z,81
2022-10-20T04:05:06.688Z,76
2022-10-20T04:06:06.660Z,76
2022-10-20T04:07:06.654Z,82
2022-10-20T04:08:06.688Z,84
2022-10-20T04:09:06.743Z,87
2022-10-20T04:10:06.664Z,89
2022-10-20T04:11:06.649Z,97
2022-10-20T04:12:06.644Z,87
2022-10-20T04:13:07.404Z,109
2022-10-20T04:14:06.656Z,109
2022-10-20T04:15:06.676Z,86
2022-10-20T04:16:06.636Z,82
2022-10-20T04:17:06.633Z,78
2022-10-20T04:18:06.638Z,70
2022-10-20T04:19:06.665Z,72
2022-10-20T04:20:06.648Z,82
2022-10-20T04:21:06.648Z,79
2022-10-20T04:22:06.650Z,149
2022-10-20T04:23:06.661Z,166
2022-10-20T04:24:06.638Z,247
2022-10-20T04:25:06.635Z,208
2022-10-20T04:26:06.660Z,181
2022-10-20T04:27:06.623Z,139
2022-10-20T04:28:06.637Z,132
2022-10-20T04:29:06.623Z,151
2022-10-20T04:30:06.620Z,145
2022-10-20T04:31:06.642Z,158
2022-10-20T04:32:06.637Z,169
2022-10-20T04:33:06.637Z,165
2022-10-20T04:34:06.616Z,163
2022-10-20T04:35:06.641Z,178
2022-10-20T04:36:06.615Z,181
2022-10-20T04:37:06.615Z,269
2022-10-20T04:38:06.633Z,254
2022-10-20T04:39:06.607Z,264
2022-10-20T04:40:06.610Z,235
2022-10-20T04:41:06.616Z,283
2022-10-20T04:42:06.611Z,289
2022-10-20T04:43:06.628Z,277
2022-10-20T04:44:06.610Z,333
2022-10-20T04:45:06.618Z,281
2022-10-20T04:46:08.437Z,250
2022-10-20T04:47:06.608Z,243
2022-10-20T04:48:06.614Z,250
2022-10-20T04:49:06.599Z,256
2022-10-20T04:50:06.613Z,279
2022-10-20T04:51:06.632Z,290
2022-10-20T04:52:06.595Z,279
2022-10-20T04:53:06.638Z,275
2022-10-20T04:54:06.606Z,279
2022-10-20T04:55:06.603Z,295
2022-10-20T04:56:06.596Z,272
2022-10-20T04:57:06.587Z,276
2022-10-20T04:58:06.601Z,351
2022-10-20T04:59:09.659Z,324
2022-10-20T05:00:06.593Z,289
2022-10-20T05:01:06.586Z,274
2022-10-20T05:02:06.694Z,271
2022-10-20T05:03:06.660Z,281
2022-10-20T05:04:06.592Z,297
2022-10-20T05:05:06.583Z,286
2022-10-20T05:06:06.588Z,312
2022-10-20T05:07:06.618Z,291
2022-10-20T05:08:06.599Z,293
2022-10-20T05:09:06.663Z,280
2022-10-20T05:10:06.580Z,287
2022-10-20T05:11:06.573Z,274
2022-10-20T05:12:06.640Z,282
2022-10-20T05:13:06.579Z,277
2022-10-20T05:14:06.585Z,311
2022-10-20T05:15:06.564Z,292
2022-10-20T05:16:06.652Z,310
2022-10-20T05:17:09.301Z,269
2022-10-20T05:18:06.570Z,256
2022-10-20T05:19:06.582Z,258
2022-10-20T05:20:06.568Z,296
2022-10-20T05:21:09.400Z,286
2022-10-20T05:22:06.563Z,258
2022-10-20T05:23:06.623Z,279
2022-10-20T05:24:06.586Z,300
2022-10-20T05:25:35.172Z,282
2022-10-20T05:26:06.561Z,281
2022-10-20T05:27:06.560Z,301
2022-10-20T05:28:06.554Z,289
2022-10-20T05:29:06.567Z,268
2022-10-20T05:30:06.573Z,294
2022-10-20T05:31:06.554Z,278
2022-10-20T05:32:06.559Z,290
2022-10-20T05:33:06.556Z,290
2022-10-20T05:34:06.588Z,292
2022-10-20T05:35:06.546Z,309
2022-10-20T05:36:06.545Z,277
2022-10-20T05:37:06.547Z,264
2022-10-20T05:38:06.555Z,292
2022-10-20T05:39:06.582Z,297
2022-10-20T05:40:06.546Z,274
2022-10-20T05:41:06.548Z,287
2022-10-20T05:42:06.544Z,272
2022-10-20T05:43:06.545Z,283
2022-10-20T05:44:06.557Z,279
2022-10-20T05:45:06.535Z,287
2022-10-20T05:46:06.548Z,285
2022-10-20T05:47:06.529Z,271
2022-10-20T05:48:06.555Z,268
2022-10-20T05:49:06.531Z,284
2022-10-20T05:50:06.533Z,311
2022-10-20T05:51:08.387Z,303
2022-10-20T05:52:06.552Z,274
2022-10-20T05:53:06.523Z,254
2022-10-20T05:54:06.526Z,266
2022-10-20T05:55:06.550Z,280
2022-10-20T05:56:06.526Z,273
2022-10-20T05:57:06.545Z,285
2022-10-20T05:58:06.522Z,297
2022-10-20T05:59:06.523Z,317
2022-10-20T06:00:06.536Z,299
2022-10-20T06:01:06.519Z,292
2022-10-20T06:02:06.528Z,272
2022-10-20T06:03:06.517Z,301
2022-10-20T06:04:06.514Z,279
2022-10-20T06:05:06.529Z,280
2022-10-20T06:06:06.512Z,325
2022-10-20T06:07:06.535Z,314
2022-10-20T06:08:06.509Z,332
2022-10-20T06:09:06.528Z,303
2022-10-20T06:10:06.504Z,319
2022-10-20T06:11:06.541Z,322
2022-10-20T06:13:06.531Z,283
2022-10-20T06:14:06.503Z,262
2022-10-20T06:15:06.526Z,281
2022-10-20T06:16:06.504Z,283
2022-10-20T06:17:06.518Z,276
2022-10-20T06:18:06.510Z,268
2022-10-20T06:19:06.495Z,311
2022-10-20T06:20:06.495Z,335
2022-10-20T06:21:06.511Z,336
2022-10-20T06:22:07.057Z,321
2022-10-20T06:23:06.528Z,287
2022-10-20T06:24:06.510Z,307
2022-10-20T06:25:06.487Z,342
2022-10-20T06:26:06.497Z,349
2022-10-20T06:27:06.525Z,303
2022-10-20T06:28:06.487Z,304
2022-10-20T06:29:06.502Z,306
2022-10-20T06:30:06.491Z,309
2022-10-20T06:31:06.486Z,294
2022-10-20T06:32:06.539Z,295
2022-10-20T06:33:06.481Z,317
2022-10-20T06:34:06.529Z,330
2022-10-20T06:35:06.474Z,342
2022-10-20T06:36:06.490Z,328
2022-10-20T06:37:06.497Z,307
2022-10-20T06:38:06.479Z,284
2022-10-20T06:39:06.472Z,332
2022-10-20T06:40:06.477Z,350
2022-10-20T06:41:06.475Z,347
2022-10-20T06:42:09.588Z,314
2022-10-20T06:43:06.501Z,304
2022-10-20T06:44:06.499Z,319
2022-10-20T06:45:06.474Z,332
2022-10-20T06:46:06.473Z,357
2022-10-20T06:47:06.508Z,364
2022-10-20T06:48:06.477Z,337
2022-10-20T06:49:06.465Z,327
2022-10-20T06:50:06.463Z,332
2022-10-20T06:51:06.457Z,344
2022-10-20T06:52:06.519Z,360
2022-10-20T06:53:06.463Z,364
2022-10-20T06:54:06.473Z,357
2022-10-20T06:55:06.457Z,363
2022-10-20T06:56:06.468Z,379
2022-10-20T06:57:06.469Z,384
2022-10-20T06:58:06.466Z,372
2022-10-20T06:59:06.483Z,374
2022-10-20T07:00:06.449Z,388
2022-10-20T07:01:09.989Z,393
2022-10-20T07:02:06.574Z,393
2022-10-20T07:03:06.439Z,391
2022-10-20T07:04:06.439Z,403
2022-10-20T07:05:06.440Z,398
2022-10-20T07:06:06.442Z,402
2022-10-20T07:07:06.455Z,401
2022-10-20T07:08:06.458Z,391
2022-10-20T07:09:06.507Z,412
2022-10-20T07:10:06.479Z,425
2022-10-20T07:11:06.455Z,407
2022-10-20T07:12:06.438Z,425
2022-10-20T07:13:06.445Z,442
2022-10-20T07:14:06.452Z,431
2022-10-20T07:15:06.469Z,406
2022-10-20T07:16:06.438Z,407
2022-10-20T07:17:06.432Z,420
2022-10-20T07:18:06.500Z,434
2022-10-20T07:19:06.431Z,415
2022-10-20T07:20:06.451Z,412
2022-10-20T07:21:06.472Z,459
2022-10-20T07:22:06.441Z,443
2022-10-20T07:23:06.476Z,436
2022-10-20T07:24:06.425Z,428
2022-10-20T07:25:06.420Z,407
2022-10-20T07:26:06.431Z,423
2022-10-20T07:27:06.432Z,422
2022-10-20T07:28:06.436Z,433
2022-10-20T07:29:06.423Z,439
2022-10-20T07:30:06.422Z,438
2022-10-20T07:31:06.449Z,450
2022-10-20T07:32:06.437Z,468
2022-10-20T07:33:06.427Z,448
2022-10-20T07:34:12.853Z,436
2022-10-20T07:35:06.413Z,476
2022-10-20T07:36:06.403Z,476
2022-10-20T07:37:06.426Z,454
2022-10-20T07:38:06.411Z,450
2022-10-20T07:39:06.443Z,478
2022-10-20T07:40:06.407Z,470
2022-10-20T07:41:06.402Z,470
2022-10-20T07:42:06.412Z,458
2022-10-20T07:43:06.407Z,473
2022-10-20T07:44:06.400Z,471
2022-10-20T07:45:06.399Z,463
2022-10-20T07:46:06.396Z,458
2022-10-20T07:47:06.439Z,455
2022-10-20T07:48:06.393Z,462
2022-10-20T07:49:38.255Z,465
2022-10-20T07:50:06.415Z,468
2022-10-20T07:51:06.416Z,479
2022-10-20T07:52:06.401Z,499
2022-10-20T07:53:06.389Z,478
2022-10-20T07:54:06.423Z,480
2022-10-20T07:55:17.689Z,487
2022-10-20T07:56:06.384Z,478
2022-10-20T07:57:06.382Z,472
2022-10-20T07:58:06.393Z,476
2022-10-20T07:59:06.431Z,496
2022-10-20T08:00:06.380Z,503
2022-10-20T08:01:06.378Z,473
2022-10-20T08:02:06.420Z,520
2022-10-20T08:03:06.421Z,499
2022-10-20T08:04:06.462Z,496
2022-10-20T08:05:06.380Z,521
2022-10-20T08:06:06.375Z,509
2022-10-20T08:07:06.388Z,487
2022-10-20T08:08:06.379Z,506
2022-10-20T08:09:06.504Z,493
2022-10-20T08:10:06.384Z,488
2022-10-20T08:11:06.367Z,494
2022-10-20T08:12:06.382Z,487
2022-10-20T08:13:06.363Z,478
2022-10-20T08:14:06.359Z,465
2022-10-20T08:15:07.388Z,480
2022-10-20T08:16:06.389Z,485
2022-10-20T08:17:06.378Z,495
2022-10-20T08:18:06.363Z,475
2022-10-20T08:19:06.446Z,459
2022-10-20T08:20:07.384Z,502
2022-10-20T08:21:06.361Z,490
2022-10-20T08:22:06.352Z,491
2022-10-20T08:23:06.387Z,494
2022-10-20T08:24:06.365Z,498
2022-10-20T08:25:06.379Z,505
2022-10-20T08:26:10.638Z,505
2022-10-20T08:27:06.352Z,504
2022-10-20T08:28:06.366Z,486
2022-10-20T08:29:06.368Z,481
2022-10-20T08:30:22.926Z,465
2022-10-20T08:31:06.339Z,484
2022-10-20T08:32:06.338Z,500
2022-10-20T08:33:06.359Z,508
2022-10-20T08:34:06.339Z,511
2022-10-20T08:35:06.360Z,511
2022-10-20T08:36:06.341Z,471
2022-10-20T08:37:06.391Z,496
2022-10-20T08:38:06.351Z,478
2022-10-20T08:39:06.629Z,531
2022-10-20T08:40:06.336Z,535
2022-10-20T08:41:06.335Z,515
2022-10-20T08:42:09.314Z,475
2022-10-20T08:43:06.350Z,524
2022-10-20T08:44:06.329Z,486
2022-10-20T08:45:06.334Z,487
2022-10-20T08:46:06.392Z,458
2022-10-20T08:47:06.339Z,495
2022-10-20T08:48:06.325Z,520
2022-10-20T08:49:06.338Z,503
2022-10-20T08:50:06.345Z,513
2022-10-20T08:51:06.352Z,514
2022-10-20T08:52:06.332Z,480
2022-10-20T08:53:06.331Z,510
2022-10-20T08:54:06.334Z,506
2022-10-20T08:55:06.328Z,514
2022-10-20T08:56:06.314Z,496
2022-10-20T08:57:06.315Z,518
2022-10-20T08:58:06.342Z,506
2022-10-20T08:59:06.325Z,507
2022-10-20T09:00:08.995Z,480
2022-10-20T09:01:06.334Z,506
2022-10-20T09:02:06.361Z,512
2022-10-20T09:03:06.336Z,479
2022-10-20T09:04:06.323Z,470
2022-10-20T09:05:06.342Z,467
2022-10-20T09:06:06.384Z,458
2022-10-20T09:07:06.351Z,467
2022-10-20T09:08:06.315Z,478
2022-10-20T09:09:06.398Z,469
2022-10-20T09:10:06.339Z,450
2022-10-20T09:11:06.318Z,423
2022-10-20T09:12:06.332Z,415
2022-10-20T09:13:06.316Z,409
2022-10-20T09:14:06.325Z,407
2022-10-20T09:15:06.316Z,402
2022-10-20T09:16:06.309Z,411
2022-10-20T09:17:09.155Z,409
2022-10-20T09:18:06.320Z,395
2022-10-20T09:19:06.311Z,394
2022-10-20T09:20:06.324Z,396
2022-10-20T09:21:06.331Z,391
2022-10-20T09:22:06.304Z,397
2022-10-20T09:23:16.473Z,400
2022-10-20T09:24:06.305Z,405
2022-10-20T09:25:06.305Z,403
2022-10-20T09:26:06.314Z,399
2022-10-20T09:27:06.313Z,399
2022-10-20T09:28:06.301Z,394
2022-10-20T09:29:13.109Z,394
2022-10-20T09:30:06.334Z,403
2022-10-20T09:31:06.289Z,415
2022-10-20T09:32:28.028Z,408
2022-10-20T09:33:06.313Z,405
2022-10-20T09:34:06.291Z,415
2022-10-20T09:35:06.290Z,410
2022-10-20T09:36:06.368Z,417
2022-10-20T09:37:06.289Z,415
2022-10-20T09:38:06.288Z,432
2022-10-20T09:39:06.323Z,423
2022-10-20T09:40:06.285Z,437
2022-10-20T09:41:06.286Z,440
2022-10-20T09:42:06.297Z,432
2022-10-20T09:43:06.284Z,423
2022-10-20T09:44:06.278Z,417
2022-10-20T09:45:06.274Z,419
2022-10-20T09:46:06.320Z,423
2022-10-20T09:47:06.291Z,419
